createdAt,value
2017-08-22T00:02:11.497Z,64.70
2017-08-22T00:04:44.268Z,64.59
2017-08-22T00:07:15.941Z,64.39
2017-08-22T00:09:47.280Z,64.18
2017-08-22T00:12:18.619Z,64.18
2017-08-22T00:14:50.402Z,64.02
2017-08-22T00:17:21.769Z,64.22
2017-08-22T00:19:53.403Z,64.04
2017-08-22T00:22:25.153Z,63.91
2017-08-22T00:24:56.476Z,64.01
2017-08-22T00:27:28.021Z,64.06
2017-08-22T00:29:59.788Z,64.03
2017-08-22T00:32:33.656Z,64.02
2017-08-22T00:35:05.109Z,64.22
2017-08-22T00:37:36.801Z,64.22
2017-08-22T00:40:12.281Z,64.24
2017-08-22T00:42:44.905Z,64.35
2017-08-22T00:45:16.638Z,64.30
2017-08-22T00:47:47.980Z,64.37
2017-08-22T00:50:19.380Z,64.55
2017-08-22T00:52:51.074Z,64.64
2017-08-22T00:55:22.398Z,64.66
2017-08-22T00:57:53.757Z,64.75
2017-08-22T01:00:25.814Z,64.83
2017-08-22T01:02:57.206Z,64.59
2017-08-22T01:05:28.916Z,64.60
2017-08-22T01:08:00.553Z,64.99
2017-08-22T01:10:33.317Z,65.11
2017-08-22T01:13:05.081Z,65.42
2017-08-22T01:15:37.979Z,65.31
2017-08-22T01:18:09.374Z,65.34
2017-08-22T01:20:40.746Z,65.49
2017-08-22T01:23:12.496Z,65.61
2017-08-22T01:25:44.178Z,65.61
2017-08-22T01:28:15.527Z,65.72
2017-08-22T01:30:47.623Z,65.77
2017-08-22T01:33:18.956Z,66.03
2017-08-22T01:35:50.683Z,66.18
2017-08-22T01:38:22.036Z,66.51
2017-08-22T01:40:53.401Z,66.86
2017-08-22T01:43:24.757Z,67.08
2017-08-22T01:45:56.164Z,67.23
2017-08-22T01:48:28.089Z,66.96
2017-08-22T01:50:59.490Z,67.07
2017-08-22T01:53:33.244Z,67.21
2017-08-22T01:56:05.626Z,67.48
2017-08-22T01:58:37.005Z,67.79
2017-08-22T02:01:08.929Z,67.93
2017-08-22T02:03:40.288Z,68.20
2017-08-22T02:06:11.890Z,68.43
2017-08-22T02:08:43.213Z,68.69
2017-08-22T02:11:14.565Z,69.04
2017-08-22T02:13:45.946Z,69.28
2017-08-22T02:16:17.390Z,69.42
2017-08-22T02:18:50.289Z,69.52
2017-08-22T02:21:21.602Z,69.70
2017-08-22T02:23:53.218Z,69.93
2017-08-22T02:26:24.674Z,70.26
2017-08-22T02:28:56.066Z,70.72
2017-08-22T02:31:28.521Z,71.21
2017-08-22T02:33:59.947Z,71.37
2017-08-22T02:36:32.030Z,71.46
2017-08-22T02:42:12.224Z,72.00
2017-08-22T02:44:50.996Z,72.24
2017-08-22T02:47:22.774Z,71.91
2017-08-22T02:49:54.208Z,71.81
2017-08-22T02:52:25.568Z,71.69
2017-08-22T02:54:57.231Z,71.62
2017-08-22T02:57:28.996Z,71.49
2017-08-22T03:00:00.617Z,70.95
2017-08-22T03:02:35.143Z,70.67
2017-08-22T03:05:07.642Z,70.43
2017-08-22T03:07:39.011Z,70.53
2017-08-22T03:10:10.625Z,70.51
2017-08-22T03:12:42.325Z,70.32
2017-08-22T03:15:13.726Z,70.42
2017-08-22T03:17:45.112Z,70.59
2017-08-22T03:20:17.881Z,70.72
2017-08-22T03:22:49.272Z,70.99
2017-08-22T03:25:20.660Z,71.11
2017-08-22T03:27:52.473Z,71.15
2017-08-22T03:30:23.883Z,71.35
2017-08-22T03:32:55.564Z,71.45
2017-08-22T03:35:26.954Z,71.61
2017-08-22T03:37:58.293Z,71.67
2017-08-22T03:40:30.863Z,71.77
2017-08-22T03:43:02.613Z,71.86
2017-08-22T03:45:34.401Z,72.16
2017-08-22T03:48:06.909Z,72.16
2017-08-22T03:50:39.808Z,72.10
2017-08-22T03:53:11.177Z,72.24
2017-08-22T03:55:42.865Z,72.52
2017-08-22T03:58:14.222Z,72.67
2017-08-22T04:00:45.580Z,72.88
2017-08-22T04:03:17.655Z,73.40
2017-08-22T04:05:49.017Z,73.67
2017-08-22T04:08:20.374Z,74.70
2017-08-22T04:10:52.250Z,74.38
2017-08-22T04:13:23.664Z,74.40
2017-08-22T04:15:55.032Z,74.48
2017-08-22T04:18:26.782Z,74.54
2017-08-22T04:20:58.115Z,74.82
2017-08-22T04:23:30.776Z,75.03
2017-08-22T04:26:02.820Z,75.24
2017-08-22T04:28:34.323Z,75.46
2017-08-22T04:31:06.130Z,75.47
2017-08-22T04:33:37.784Z,75.50
2017-08-22T04:36:09.150Z,75.52
2017-08-22T04:38:41.019Z,75.50
2017-08-22T04:41:12.413Z,75.52
2017-08-22T04:43:43.847Z,75.52
2017-08-22T04:46:15.628Z,75.55
2017-08-22T04:48:47.144Z,75.53
2017-08-22T04:51:18.489Z,75.46
2017-08-22T04:53:50.303Z,75.43
2017-08-22T04:56:21.683Z,75.45
2017-08-22T04:58:53.083Z,75.29
2017-08-22T05:01:25.271Z,75.11
2017-08-22T05:07:04.713Z,74.73
2017-08-22T05:09:38.501Z,74.40
2017-08-22T05:12:16.735Z,73.99
2017-08-22T05:14:48.670Z,73.51
2017-08-22T05:17:22.008Z,73.05
2017-08-22T05:19:54.835Z,72.68
2017-08-22T05:22:26.529Z,72.53
2017-08-22T05:24:58.056Z,72.37
2017-08-22T05:27:30.069Z,71.93
2017-08-22T05:30:02.663Z,71.70
2017-08-22T05:32:34.271Z,71.17
2017-08-22T05:35:05.621Z,70.42
2017-08-22T05:37:36.989Z,69.87
2017-08-22T05:40:08.807Z,68.77
2017-08-22T05:42:40.145Z,68.04
2017-08-22T05:45:11.633Z,66.91
2017-08-22T05:47:43.503Z,65.71
2017-08-22T05:50:16.259Z,64.74
2017-08-22T05:52:56.174Z,64.69
2017-08-22T05:55:28.237Z,64.27
2017-08-22T05:57:59.814Z,64.14
2017-08-22T06:00:32.077Z,64.04
2017-08-22T06:03:04.114Z,63.74
2017-08-22T06:05:36.236Z,63.29
2017-08-22T06:08:07.692Z,63.28
2017-08-22T06:10:39.037Z,62.99
2017-08-22T06:13:10.752Z,62.41
2017-08-22T06:15:42.144Z,61.76
2017-08-22T06:18:29.008Z,61.25
2017-08-22T06:21:00.465Z,60.69
2017-08-22T06:23:32.116Z,60.35
2017-08-22T06:26:04.700Z,59.81
2017-08-22T06:28:36.690Z,59.75
2017-08-22T06:31:08.052Z,59.27
2017-08-22T06:33:39.359Z,59.00
2017-08-22T06:36:12.825Z,58.32
2017-08-22T06:38:44.376Z,58.70
2017-08-22T06:41:16.782Z,58.78
2017-08-22T06:43:48.176Z,58.76
2017-08-22T06:46:22.756Z,58.16
2017-08-22T06:48:54.075Z,57.69
2017-08-22T06:51:25.448Z,56.87
2017-08-22T06:53:57.196Z,56.30
2017-08-22T06:56:28.792Z,55.92
2017-08-22T06:59:02.732Z,55.74
2017-08-22T07:01:34.104Z,55.54
2017-08-22T07:04:10.128Z,55.37
2017-08-22T07:06:41.852Z,55.75
2017-08-22T07:09:13.183Z,55.42
2017-08-22T07:11:44.527Z,55.11
2017-08-22T07:14:18.106Z,54.71
2017-08-22T07:16:49.488Z,54.27
2017-08-22T07:19:21.776Z,53.85
2017-08-22T07:21:53.306Z,53.66
2017-08-22T07:24:24.752Z,53.33
2017-08-22T07:26:56.663Z,52.87
2017-08-22T07:29:28.065Z,52.34
2017-08-22T07:31:59.591Z,51.84
2017-08-22T07:34:31.627Z,51.24
2017-08-22T07:37:03.300Z,51.02
2017-08-22T07:39:34.724Z,51.34
2017-08-22T07:42:08.235Z,51.34
2017-08-22T07:44:39.661Z,51.18
2017-08-22T07:47:11.029Z,51.07
2017-08-22T07:49:42.868Z,50.64
2017-08-22T07:52:16.252Z,50.44
2017-08-22T07:54:47.689Z,50.29
2017-08-22T07:57:20.712Z,50.70
2017-08-22T07:59:52.063Z,51.22
2017-08-22T08:02:23.777Z,51.71
2017-08-22T08:04:55.277Z,51.79
2017-08-22T08:07:27.235Z,51.50
2017-08-22T08:09:58.650Z,51.21
2017-08-22T08:12:30.109Z,51.04
2017-08-22T08:15:02.316Z,49.94
2017-08-22T08:17:33.644Z,50.69
2017-08-22T08:20:08.128Z,49.70
2017-08-22T08:22:39.538Z,49.01
2017-08-22T08:25:11.008Z,48.45
2017-08-22T08:27:43.005Z,47.81
2017-08-22T08:30:15.535Z,48.08
2017-08-22T08:32:47.340Z,48.17
2017-08-22T08:35:20.468Z,48.08
2017-08-22T08:37:54.185Z,48.12
2017-08-22T08:40:26.010Z,48.19
2017-08-22T08:42:57.555Z,47.32
2017-08-22T08:45:29.442Z,47.39
2017-08-22T08:48:01.156Z,46.90
2017-08-22T08:50:32.532Z,46.21
2017-08-22T08:53:04.640Z,45.89
2017-08-22T08:55:35.998Z,47.66
2017-08-22T08:58:07.457Z,48.65
2017-08-22T09:00:39.205Z,46.53
2017-08-22T09:03:10.651Z,46.49
2017-08-22T09:05:43.401Z,45.78
2017-08-22T09:08:15.879Z,42.86
2017-08-22T09:10:47.233Z,42.40
2017-08-22T09:13:20.581Z,43.34
2017-08-22T09:16:12.003Z,44.30
2017-08-22T09:18:44.157Z,42.42
2017-08-22T09:21:17.116Z,43.75
2017-08-22T09:23:49.936Z,43.53
2017-08-22T09:26:23.150Z,42.89
2017-08-22T09:28:54.532Z,42.68
2017-08-22T09:31:27.124Z,42.30
2017-08-22T09:33:58.507Z,41.51
2017-08-22T09:36:29.842Z,41.46
2017-08-22T09:39:03.072Z,41.18
2017-08-22T09:41:34.483Z,41.58
2017-08-22T09:44:10.926Z,41.03
2017-08-22T09:46:42.257Z,40.70
2017-08-22T09:49:13.622Z,39.59
2017-08-22T09:51:44.976Z,39.33
2017-08-22T09:54:17.056Z,39.29
2017-08-22T09:56:48.596Z,39.30
2017-08-22T09:59:21.577Z,38.89
2017-08-22T10:01:53.357Z,38.61
2017-08-22T10:04:24.727Z,38.17
2017-08-22T10:06:56.613Z,37.17
2017-08-22T10:09:28.306Z,36.98
2017-08-22T10:11:59.666Z,37.11
2017-08-22T10:14:31.338Z,37.68
2017-08-22T10:17:03.860Z,36.58
2017-08-22T10:19:36.092Z,36.51
2017-08-22T10:22:11.377Z,35.27
2017-08-22T10:24:42.863Z,33.77
2017-08-22T10:27:14.212Z,34.83
2017-08-22T10:29:45.960Z,34.82
2017-08-22T10:32:21.559Z,36.27
2017-08-22T10:34:53.188Z,36.15
2017-08-22T10:37:25.129Z,36.50
2017-08-22T10:39:56.464Z,33.15
2017-08-22T10:42:28.154Z,35.45
2017-08-22T10:44:59.544Z,35.16
2017-08-22T10:47:31.234Z,32.26
2017-08-22T10:50:04.858Z,34.27
2017-08-22T10:52:36.235Z,32.70
2017-08-22T10:55:08.247Z,30.82
2017-08-22T10:57:39.610Z,29.09
2017-08-22T11:00:12.362Z,30.61
2017-08-22T11:02:43.688Z,31.36
2017-08-22T11:05:15.016Z,30.47
2017-08-22T11:07:46.715Z,31.70
2017-08-22T11:10:22.933Z,29.74
2017-08-22T11:12:54.709Z,28.42
2017-08-22T11:15:26.083Z,30.77
2017-08-22T11:17:57.512Z,30.46
2017-08-22T11:20:29.313Z,30.42
2017-08-22T11:23:00.774Z,29.25
2017-08-22T11:25:32.150Z,28.64
2017-08-22T11:30:41.840Z,27.46
2017-08-22T11:33:13.197Z,25.31
2017-08-22T11:35:45.067Z,24.86
2017-08-22T11:38:18.011Z,25.51
2017-08-22T11:40:49.537Z,25.13
2017-08-22T11:43:21.815Z,24.35
2017-08-22T11:45:53.256Z,23.38
2017-08-22T11:48:24.774Z,24.03
2017-08-22T11:50:56.206Z,23.14
2017-08-22T11:53:27.600Z,22.36
2017-08-22T11:55:58.980Z,21.95
2017-08-22T11:58:30.389Z,21.44
2017-08-22T12:01:02.129Z,22.32
2017-08-22T12:03:33.463Z,23.21
2017-08-22T12:06:07.058Z,22.09
2017-08-22T12:08:38.479Z,23.63
2017-08-22T12:11:10.113Z,24.26
2017-08-22T12:13:42.046Z,22.82
2017-08-22T12:16:14.457Z,20.22
2017-08-22T12:18:45.908Z,17.34
2017-08-22T12:21:18.321Z,16.10
2017-08-22T12:23:49.910Z,15.53
2017-08-22T12:26:22.642Z,14.51
2017-08-22T12:28:54.676Z,12.86
2017-08-22T12:31:26.087Z,12.34
2017-08-22T12:33:57.423Z,12.02
2017-08-22T12:36:28.792Z,11.27
2017-08-22T12:39:00.158Z,10.64
2017-08-22T12:41:31.489Z,10.80
2017-08-22T12:44:03.858Z,10.80
2017-08-22T12:46:35.361Z,10.21
2017-08-22T12:49:06.686Z,9.43
2017-08-22T12:51:38.031Z,8.65
2017-08-22T12:54:11.301Z,7.96
2017-08-22T12:56:42.708Z,7.27
2017-08-22T12:59:14.238Z,7.72
2017-08-22T13:01:46.859Z,7.97
2017-08-22T13:04:20.529Z,7.98
2017-08-22T13:06:52.082Z,8.11
2017-08-22T13:09:24.189Z,8.60
2017-08-22T13:11:55.873Z,8.44
2017-08-22T13:14:27.239Z,8.49
2017-08-22T13:16:58.569Z,8.42
2017-08-22T13:19:29.868Z,8.16
2017-08-22T13:22:05.110Z,8.14
2017-08-22T13:24:36.725Z,8.21
2017-08-22T13:27:08.085Z,8.14
2017-08-22T13:29:40.321Z,8.04
2017-08-22T13:32:16.908Z,7.30
2017-08-22T13:34:49.212Z,7.36
2017-08-22T13:37:22.903Z,7.35
2017-08-22T13:39:54.270Z,7.19
2017-08-22T13:42:25.621Z,6.82
2017-08-22T13:44:56.987Z,6.52
2017-08-22T13:47:28.577Z,6.45
2017-08-22T13:49:59.963Z,6.36
2017-08-22T13:52:31.321Z,6.11
2017-08-22T13:55:03.049Z,6.22
2017-08-22T14:00:11.407Z,6.86
2017-08-22T14:02:44.963Z,6.67
2017-08-22T14:05:16.775Z,6.29
2017-08-22T14:07:48.175Z,6.33
2017-08-22T14:10:22.922Z,6.82
2017-08-22T14:12:54.296Z,7.22
2017-08-22T14:15:25.738Z,7.37
2017-08-22T14:17:57.215Z,7.04
2017-08-22T14:20:28.568Z,6.82
2017-08-22T14:22:59.939Z,6.76
2017-08-22T14:25:31.498Z,6.75
2017-08-22T14:28:05.292Z,6.84
2017-08-22T14:30:36.736Z,7.23
2017-08-22T14:33:08.192Z,8.08
2017-08-22T14:35:39.689Z,10.03
2017-08-22T14:38:15.833Z,12.78
2017-08-22T14:40:47.324Z,14.58
2017-08-22T14:43:19.646Z,16.13
2017-08-22T14:45:51.183Z,16.08
2017-08-22T14:48:23.386Z,17.73
2017-08-22T14:50:54.746Z,19.53
2017-08-22T14:53:26.310Z,20.19
2017-08-22T14:55:57.717Z,18.53
2017-08-22T14:58:29.061Z,15.72
2017-08-22T15:01:00.953Z,14.57
2017-08-22T15:03:32.348Z,16.17
2017-08-22T15:06:07.199Z,18.43
2017-08-22T15:08:38.745Z,19.94
2017-08-22T15:11:10.336Z,21.78
2017-08-22T15:13:42.537Z,22.57
2017-08-22T15:16:20.824Z,23.32
2017-08-22T15:18:52.612Z,23.95
2017-08-22T15:21:24.748Z,24.33
2017-08-22T15:23:56.165Z,24.93
2017-08-22T15:26:27.751Z,26.02
2017-08-22T15:28:59.241Z,26.62
2017-08-22T15:31:31.715Z,23.19
2017-08-22T15:34:06.410Z,18.99
2017-08-22T15:36:38.111Z,19.68
2017-08-22T15:41:49.218Z,22.29
2017-08-22T15:44:24.819Z,21.70
2017-08-22T15:46:56.952Z,22.62
2017-08-22T15:49:28.588Z,22.47
2017-08-22T15:52:01.376Z,21.17
2017-08-22T15:54:34.016Z,20.00
2017-08-22T15:57:06.320Z,18.54
2017-08-22T15:59:37.987Z,18.17
2017-08-22T16:02:12.851Z,17.83
2017-08-22T16:04:44.644Z,19.98
2017-08-22T16:07:16.967Z,22.42
2017-08-22T16:09:48.448Z,22.84
2017-08-22T16:12:23.964Z,20.55
2017-08-22T16:14:55.742Z,18.79
2017-08-22T16:17:27.573Z,17.01
2017-08-22T16:19:59.091Z,16.04
2017-08-22T16:22:30.688Z,15.54
2017-08-22T16:25:02.735Z,15.49
2017-08-22T16:27:34.419Z,15.61
2017-08-22T16:30:10.051Z,16.88
2017-08-22T16:32:41.514Z,17.02
2017-08-22T16:35:14.022Z,17.33
2017-08-22T16:37:46.332Z,18.59
2017-08-22T16:40:22.286Z,19.82
2017-08-22T16:42:54.644Z,19.66
2017-08-22T16:45:26.940Z,19.76
2017-08-22T16:47:58.664Z,19.94
2017-08-22T16:50:30.947Z,19.47
2017-08-22T16:53:02.868Z,19.35
2017-08-22T16:55:34.394Z,19.54
2017-08-22T16:58:10.299Z,20.67
2017-08-22T17:00:42.734Z,20.38
2017-08-22T17:03:14.327Z,21.38
2017-08-22T17:05:45.877Z,22.40
2017-08-22T17:08:18.132Z,23.94
2017-08-22T17:10:49.605Z,25.75
2017-08-22T17:13:22.426Z,27.67
2017-08-22T17:15:54.212Z,29.20
2017-08-22T17:18:25.868Z,30.03
2017-08-22T17:20:58.457Z,30.31
2017-08-22T17:23:30.000Z,31.77
2017-08-22T17:26:03.644Z,32.06
2017-08-22T17:28:35.541Z,32.55
2017-08-22T17:31:07.797Z,33.25
2017-08-22T17:33:40.028Z,33.98
2017-08-22T17:36:15.544Z,34.52
2017-08-22T17:38:47.117Z,34.97
2017-08-22T17:41:20.762Z,35.35
2017-08-22T17:43:52.418Z,35.54
2017-08-22T17:46:24.222Z,35.88
2017-08-22T17:48:55.647Z,36.20
2017-08-22T17:51:27.274Z,36.27
2017-08-22T17:53:58.752Z,36.37
2017-08-22T17:56:30.067Z,36.61
2017-08-22T17:59:01.742Z,36.76
2017-08-22T18:01:33.266Z,36.94
2017-08-22T18:04:09.292Z,37.13
2017-08-22T18:06:40.733Z,37.27
2017-08-22T18:09:12.057Z,37.50
2017-08-22T18:11:43.473Z,37.79
2017-08-22T18:14:15.653Z,38.07
2017-08-22T18:16:47.831Z,38.28
2017-08-22T18:19:21.267Z,38.32
2017-08-22T18:21:53.517Z,38.41
2017-08-22T18:24:25.054Z,38.62
2017-08-22T18:26:56.417Z,38.79
2017-08-22T18:29:27.716Z,38.97
2017-08-22T18:31:59.070Z,39.20
2017-08-22T18:34:30.428Z,39.42
2017-08-22T18:37:03.049Z,39.52
2017-08-22T18:39:34.424Z,39.93
2017-08-22T18:42:10.112Z,40.07
2017-08-22T18:44:41.431Z,40.06
2017-08-22T18:47:12.761Z,40.19
2017-08-22T18:49:45.739Z,40.46
2017-08-22T18:52:17.276Z,40.85
2017-08-22T18:54:48.633Z,40.94
2017-08-22T18:57:20.779Z,41.15
2017-08-22T18:59:52.478Z,41.15
2017-08-22T19:05:05.741Z,41.49
2017-08-22T19:07:37.248Z,41.68
2017-08-22T19:10:10.198Z,41.75
2017-08-22T19:12:41.572Z,41.89
2017-08-22T19:15:13.007Z,41.93
2017-08-22T19:17:44.360Z,41.88
2017-08-22T19:20:20.381Z,42.07
2017-08-22T19:22:52.747Z,42.11
2017-08-22T19:25:27.336Z,42.28
2017-08-22T19:27:58.885Z,42.84
2017-08-22T19:30:30.401Z,42.68
2017-08-22T19:33:02.107Z,42.81
2017-08-22T19:35:33.596Z,43.23
2017-08-22T19:38:06.187Z,43.45
2017-08-22T19:40:37.625Z,43.34
2017-08-22T19:43:09.025Z,43.13
2017-08-22T19:45:40.719Z,43.21
2017-08-22T19:48:13.896Z,43.04
2017-08-22T19:50:45.328Z,43.18
2017-08-22T19:53:16.885Z,43.16
2017-08-22T19:55:48.313Z,42.65
2017-08-22T19:58:23.548Z,42.70
2017-08-22T20:00:55.273Z,42.93
2017-08-22T20:03:27.150Z,43.24
2017-08-22T20:08:57.980Z,43.89
2017-08-22T20:11:30.529Z,44.10
2017-08-22T20:14:09.576Z,44.05
2017-08-22T20:16:44.980Z,44.26
2017-08-22T20:19:16.640Z,44.39
2017-08-22T20:21:48.305Z,44.63
2017-08-22T20:24:20.919Z,45.00
2017-08-22T20:26:52.757Z,45.20
2017-08-22T20:29:24.656Z,45.27
2017-08-22T20:31:56.701Z,45.31
2017-08-22T20:34:28.929Z,45.47
2017-08-22T20:37:00.893Z,45.31
2017-08-22T20:39:33.422Z,45.39
2017-08-22T20:42:06.909Z,45.44
2017-08-22T20:44:38.983Z,47.45
2017-08-22T20:47:10.430Z,46.50
2017-08-22T20:49:43.149Z,46.05
2017-08-22T20:52:14.694Z,45.53
2017-08-22T20:54:46.444Z,45.18
2017-08-22T20:57:17.880Z,45.05
2017-08-22T20:59:49.285Z,45.13
2017-08-22T21:02:22.027Z,44.83
2017-08-22T21:04:53.734Z,44.58
2017-08-22T21:07:25.145Z,44.74
2017-08-22T21:09:57.277Z,44.68
2017-08-22T21:12:28.664Z,44.66
2017-08-22T21:15:00.116Z,44.96
2017-08-22T21:17:31.523Z,44.76
2017-08-22T21:20:04.756Z,45.03
2017-08-22T21:22:36.075Z,45.14
2017-08-22T21:25:07.423Z,45.24
2017-08-22T21:27:39.457Z,44.98
2017-08-22T21:30:11.012Z,45.23
2017-08-22T21:32:43.590Z,45.28
2017-08-22T21:35:15.008Z,45.12
2017-08-22T21:37:46.374Z,44.99
2017-08-22T21:40:17.911Z,45.41
2017-08-22T21:42:49.391Z,45.55
2017-08-22T21:45:20.804Z,45.19
2017-08-22T21:47:52.204Z,45.25
2017-08-22T21:50:23.710Z,45.27
2017-08-22T21:52:55.767Z,45.25
2017-08-22T21:55:27.213Z,45.09
2017-08-22T21:57:58.800Z,45.39
2017-08-22T22:00:30.273Z,45.55
2017-08-22T22:03:02.513Z,45.71
2017-08-22T22:05:33.926Z,45.94
2017-08-22T22:08:06.584Z,46.02
2017-08-22T22:10:39.004Z,46.03
2017-08-22T22:13:10.725Z,46.10
2017-08-22T22:15:43.331Z,45.91
2017-08-22T22:18:14.792Z,45.79
2017-08-22T22:20:46.696Z,45.90
2017-08-22T22:23:18.042Z,45.91
2017-08-22T22:25:49.548Z,45.80
2017-08-22T22:28:20.934Z,46.05
2017-08-22T22:30:52.281Z,45.68
2017-08-22T22:33:23.731Z,45.96
2017-08-22T22:35:55.088Z,46.45
2017-08-22T22:38:26.467Z,46.78
2017-08-22T22:40:57.870Z,46.56
2017-08-22T22:43:29.302Z,46.91
2017-08-22T22:46:03.740Z,47.57
2017-08-22T22:48:35.094Z,47.35
2017-08-22T22:51:06.461Z,47.22
2017-08-22T22:53:38.526Z,47.17
2017-08-22T22:56:11.194Z,46.97
2017-08-22T22:58:44.918Z,47.30
2017-08-22T23:01:16.259Z,48.35
2017-08-22T23:03:47.705Z,49.02
2017-08-22T23:06:19.069Z,48.52
2017-08-22T23:08:51.300Z,47.80
2017-08-22T23:11:22.788Z,47.89
2017-08-22T23:13:54.662Z,48.23
2017-08-22T23:16:26.642Z,48.49
2017-08-22T23:18:57.965Z,49.42
2017-08-22T23:21:29.309Z,48.99
2017-08-22T23:24:02.547Z,48.78
2017-08-22T23:26:34.102Z,49.25
2017-08-22T23:29:05.426Z,49.63
2017-08-22T23:31:36.800Z,49.77
2017-08-22T23:34:08.192Z,49.98
2017-08-22T23:36:40.809Z,50.85
2017-08-22T23:39:12.522Z,50.84
2017-08-22T23:41:45.443Z,50.71
2017-08-22T23:44:16.913Z,50.80
2017-08-22T23:46:48.370Z,50.80
2017-08-22T23:49:19.694Z,50.70
2017-08-22T23:51:51.026Z,50.67
2017-08-22T23:54:22.373Z,50.76
2017-08-22T23:56:53.678Z,50.88
2017-08-22T23:59:25.019Z,51.02
